sensor_id;sensor_type;location;lat;lon;timestamp;temperature;humidity
59067;DHT22;44854;50.838;4.438;2022-11-20T06:21:38;6.30;99.90
59067;DHT22;44854;50.838;4.438;2022-11-20T06:24:05;6.30;99.90
59067;DHT22;44854;50.838;4.438;2022-11-20T06:26:31;6.30;99.90
59067;DHT22;44854;50.838;4.438;2022-11-20T06:29:00;6.40;99.90
59067;DHT22;44854;50.838;4.438;2022-11-20T06:31:25;6.40;99.90
59067;DHT22;44854;50.838;4.438;2022-11-20T06:33:51;6.50;99.90
59067;DHT22;44854;50.838;4.438;2022-11-20T06:36:18;6.40;99.90
59067;DHT22;44854;50.838;4.438;2022-11-20T06:38:44;6.40;99.90
59067;DHT22;44854;50.838;4.438;2022-11-20T06:41:14;6.30;99.90
59067;DHT22;44854;50.838;4.438;2022-11-20T06:43:40;6.30;99.90
59067;DHT22;44854;50.838;4.438;2022-11-20T06:46:05;6.30;99.90
59067;DHT22;44854;50.838;4.438;2022-11-20T06:48:31;6.40;99.90
59067;DHT22;44854;50.838;4.438;2022-11-20T06:50:57;6.40;99.90
59067;DHT22;44854;50.838;4.438;2022-11-20T06:53:25;6.40;99.90
59067;DHT22;44854;50.838;4.438;2022-11-20T06:55:51;6.30;99.90
59067;DHT22;44854;50.838;4.438;2022-11-20T06:58:17;6.40;99.90
59067;DHT22;44854;50.838;4.438;2022-11-20T07:00:43;6.40;99.90
59067;DHT22;44854;50.838;4.438;2022-11-20T07:03:09;6.40;99.90
59067;DHT22;44854;50.838;4.438;2022-11-20T07:05:36;6.40;99.90
59067;DHT22;44854;50.838;4.438;2022-11-20T07:08:02;6.40;99.90
59067;DHT22;44854;50.838;4.438;2022-11-20T07:10:28;6.40;99.90
59067;DHT22;44854;50.838;4.438;2022-11-20T07:12:53;6.50;99.90
59067;DHT22;44854;50.838;4.438;2022-11-20T07:15:20;6.50;99.90
59067;DHT22;44854;50.838;4.438;2022-11-20T07:17:46;6.60;99.90
59067;DHT22;44854;50.838;4.438;2022-11-20T07:20:12;6.60;99.90
59067;DHT22;44854;50.838;4.438;2022-11-20T07:22:38;6.60;99.90
59067;DHT22;44854;50.838;4.438;2022-11-20T07:25:03;6.60;99.90
59067;DHT22;44854;50.838;4.438;2022-11-20T07:27:29;6.60;99.90
59067;DHT22;44854;50.838;4.438;2022-11-20T07:29:55;6.60;99.90
59067;DHT22;44854;50.838;4.438;2022-11-20T07:32:20;6.70;99.90
59067;DHT22;44854;50.838;4.438;2022-11-20T07:34:46;6.70;99.90
59067;DHT22;44854;50.838;4.438;2022-11-20T07:37:12;6.60;99.90
59067;DHT22;44854;50.838;4.438;2022-11-20T07:39:37;6.70;99.90
59067;DHT22;44854;50.838;4.438;2022-11-20T07:42:03;6.80;99.90
59067;DHT22;44854;50.838;4.438;2022-11-20T07:44:28;6.80;99.90
59067;DHT22;44854;50.838;4.438;2022-11-20T07:46:54;6.80;99.90
59067;DHT22;44854;50.838;4.438;2022-11-20T07:49:20;6.80;99.90
59067;DHT22;44854;50.838;4.438;2022-11-20T07:51:45;6.90;99.90
59067;DHT22;44854;50.838;4.438;2022-11-20T07:54:10;6.90;99.90
59067;DHT22;44854;50.838;4.438;2022-11-20T07:56:36;6.80;99.90
59067;DHT22;44854;50.838;4.438;2022-11-20T07:59:02;6.90;99.90
59067;DHT22;44854;50.838;4.438;2022-11-20T08:01:28;7.00;99.90
59067;DHT22;44854;50.838;4.438;2022-11-20T08:03:54;7.00;99.90
59067;DHT22;44854;50.838;4.438;2022-11-20T08:06:19;7.00;99.90
59067;DHT22;44854;50.838;4.438;2022-11-20T08:08:45;7.10;99.90
59067;DHT22;44854;50.838;4.438;2022-11-20T08:11:10;7.10;99.90
59067;DHT22;44854;50.838;4.438;2022-11-20T08:13:55;7.10;99.90
59067;DHT22;44854;50.838;4.438;2022-11-20T08:16:42;7.00;99.90
59067;DHT22;44854;50.838;4.438;2022-11-20T08:19:11;7.10;99.90
59067;DHT22;44854;50.838;4.438;2022-11-20T08:21:37;7.10;99.90
59067;DHT22;44854;50.838;4.438;2022-11-20T08:24:06;7.20;99.90
59067;DHT22;44854;50.838;4.438;2022-11-20T08:26:41;7.20;99.90
59067;DHT22;44854;50.838;4.438;2022-11-20T08:29:09;7.30;99.90
59067;DHT22;44854;50.838;4.438;2022-11-20T08:31:35;7.30;99.90
59067;DHT22;44854;50.838;4.438;2022-11-20T08:34:04;7.30;99.90
59067;DHT22;44854;50.838;4.438;2022-11-20T08:36:32;7.40;99.90
59067;DHT22;44854;50.838;4.438;2022-11-20T08:38:57;7.40;99.90
59067;DHT22;44854;50.838;4.438;2022-11-20T08:41:23;7.40;99.90
59067;DHT22;44854;50.838;4.438;2022-11-20T08:43:49;7.60;99.90
59067;DHT22;44854;50.838;4.438;2022-11-20T08:46:14;7.60;99.90
59067;DHT22;44854;50.838;4.438;2022-11-20T08:48:40;7.50;99.90
59067;DHT22;44854;50.838;4.438;2022-11-20T08:51:06;7.50;99.90
59067;DHT22;44854;50.838;4.438;2022-11-20T08:53:31;7.50;99.90
59067;DHT22;44854;50.838;4.438;2022-11-20T08:55:57;7.60;99.90
59067;DHT22;44854;50.838;4.438;2022-11-20T08:58:29;7.60;99.90
59067;DHT22;44854;50.838;4.438;2022-11-20T09:01:01;7.60;99.90
59067;DHT22;44854;50.838;4.438;2022-11-20T09:03:26;7.70;99.90
59067;DHT22;44854;50.838;4.438;2022-11-20T09:05:59;7.70;99.90
59067;DHT22;44854;50.838;4.438;2022-11-20T09:08:27;7.70;99.90
59067;DHT22;44854;50.838;4.438;2022-11-20T09:11:00;7.90;99.90
59067;DHT22;44854;50.838;4.438;2022-11-20T09:13:29;7.90;99.90
59067;DHT22;44854;50.838;4.438;2022-11-20T09:15:56;8.00;99.90
59067;DHT22;44854;50.838;4.438;2022-11-20T09:18:22;8.00;99.90
59067;DHT22;44854;50.838;4.438;2022-11-20T09:20:47;8.10;99.90
59067;DHT22;44854;50.838;4.438;2022-11-20T09:23:14;8.20;99.90
59067;DHT22;44854;50.838;4.438;2022-11-20T09:25:40;8.20;99.90
59067;DHT22;44854;50.838;4.438;2022-11-20T09:28:05;8.20;99.90
59067;DHT22;44854;50.838;4.438;2022-11-20T09:30:35;8.20;99.90
59067;DHT22;44854;50.838;4.438;2022-11-20T09:33:00;8.30;99.90
59067;DHT22;44854;50.838;4.438;2022-11-20T09:35:25;8.30;99.90
59067;DHT22;44854;50.838;4.438;2022-11-20T09:37:51;8.40;99.90
59067;DHT22;44854;50.838;4.438;2022-11-20T09:40:19;8.40;99.90
59067;DHT22;44854;50.838;4.438;2022-11-20T09:42:46;8.50;99.90
59067;DHT22;44854;50.838;4.438;2022-11-20T09:45:15;8.60;99.90
59067;DHT22;44854;50.838;4.438;2022-11-20T09:55:18;8.80;99.90
59067;DHT22;44854;50.838;4.438;2022-11-20T09:57:45;8.90;99.90
59067;DHT22;44854;50.838;4.438;2022-11-20T10:00:13;9.10;99.90
59067;DHT22;44854;50.838;4.438;2022-11-20T10:07:33;9.10;99.90
59067;DHT22;44854;50.838;4.438;2022-11-20T10:10:01;9.20;99.90
59067;DHT22;44854;50.838;4.438;2022-11-20T10:22:58;9.60;99.90
59067;DHT22;44854;50.838;4.438;2022-11-20T10:25:33;9.60;99.90
59067;DHT22;44854;50.838;4.438;2022-11-20T10:28:15;9.70;99.90
59067;DHT22;44854;50.838;4.438;2022-11-20T10:30:54;9.70;99.90
59067;DHT22;44854;50.838;4.438;2022-11-20T10:33:22;9.80;99.90
59067;DHT22;44854;50.838;4.438;2022-11-20T10:36:00;9.80;99.90
59067;DHT22;44854;50.838;4.438;2022-11-20T10:38:40;9.80;99.90
59067;DHT22;44854;50.838;4.438;2022-11-20T10:41:08;10.00;99.90
59067;DHT22;44854;50.838;4.438;2022-11-20T10:46:28;10.00;99.90
59067;DHT22;44854;50.838;4.438;2022-11-20T10:48:55;10.40;99.90
59067;DHT22;44854;50.838;4.438;2022-11-20T10:51:27;10.40;99.90
59067;DHT22;44854;50.838;4.438;2022-11-20T11:01:24;10.40;99.90
59067;DHT22;44854;50.838;4.438;2022-11-20T11:03:52;10.50;99.90
59067;DHT22;44854;50.838;4.438;2022-11-20T11:06:37;10.40;99.90
59067;DHT22;44854;50.838;4.438;2022-11-20T11:09:10;10.30;99.90
59067;DHT22;44854;50.838;4.438;2022-11-20T11:11:37;10.40;99.90
59067;DHT22;44854;50.838;4.438;2022-11-20T11:14:12;10.40;99.90
59067;DHT22;44854;50.838;4.438;2022-11-20T11:16:52;10.50;99.90
59067;DHT22;44854;50.838;4.438;2022-11-20T11:19:18;10.60;99.90
59067;DHT22;44854;50.838;4.438;2022-11-20T11:21:53;10.20;99.90
59067;DHT22;44854;50.838;4.438;2022-11-20T11:24:26;10.00;99.90
59067;DHT22;44854;50.838;4.438;2022-11-20T11:29:21;10.40;99.90
59067;DHT22;44854;50.838;4.438;2022-11-20T11:31:46;10.40;99.90
59067;DHT22;44854;50.838;4.438;2022-11-20T11:34:15;10.50;99.90
59067;DHT22;44854;50.838;4.438;2022-11-20T11:36:42;10.50;99.90
59067;DHT22;44854;50.838;4.438;2022-11-20T11:39:11;10.50;99.90
59067;DHT22;44854;50.838;4.438;2022-11-20T11:41:39;10.40;99.90
59067;DHT22;44854;50.838;4.438;2022-11-20T11:44:27;10.60;99.90
59067;DHT22;44854;50.838;4.438;2022-11-20T11:47:15;10.40;99.90
59067;DHT22;44854;50.838;4.438;2022-11-20T11:49:49;10.40;99.90
59067;DHT22;44854;50.838;4.438;2022-11-20T11:52:15;10.30;99.90
59067;DHT22;44854;50.838;4.438;2022-11-20T11:54:49;10.40;99.90
59067;DHT22;44854;50.838;4.438;2022-11-20T11:57:23;10.60;99.90
59067;DHT22;44854;50.838;4.438;2022-11-20T11:59:54;10.40;99.90
59067;DHT22;44854;50.838;4.438;2022-11-20T12:02:31;10.30;99.90
59067;DHT22;44854;50.838;4.438;2022-11-20T12:04:59;10.20;99.90
59067;DHT22;44854;50.838;4.438;2022-11-20T12:09:52;10.40;99.90
59067;DHT22;44854;50.838;4.438;2022-11-20T12:12:23;10.30;99.90
59067;DHT22;44854;50.838;4.438;2022-11-20T12:14:50;10.30;99.90
59067;DHT22;44854;50.838;4.438;2022-11-20T12:17:18;10.20;99.90
59067;DHT22;44854;50.838;4.438;2022-11-20T12:19:44;10.10;99.90
59067;DHT22;44854;50.838;4.438;2022-11-20T12:24:40;10.50;99.90
59067;DHT22;44854;50.838;4.438;2022-11-20T12:34:40;9.90;99.90
59067;DHT22;44854;50.838;4.438;2022-11-20T12:39:41;10.10;99.90
59067;DHT22;44854;50.838;4.438;2022-11-20T12:45:21;10.10;99.90
59067;DHT22;44854;50.838;4.438;2022-11-20T12:58:35;9.70;99.90
59067;DHT22;44854;50.838;4.438;2022-11-20T13:01:13;9.60;99.90
59067;DHT22;44854;50.838;4.438;2022-11-20T13:04:07;9.70;99.90
59067;DHT22;44854;50.838;4.438;2022-11-20T13:06:36;9.80;99.90
59067;DHT22;44854;50.838;4.438;2022-11-20T13:09:02;10.00;99.90
59067;DHT22;44854;50.838;4.438;2022-11-20T13:16:38;9.90;99.90
59067;DHT22;44854;50.838;4.438;2022-11-20T13:19:11;9.80;99.90
59067;DHT22;44854;50.838;4.438;2022-11-20T13:21:44;9.90;99.90
59067;DHT22;44854;50.838;4.438;2022-11-20T13:27:01;9.80;99.90
59067;DHT22;44854;50.838;4.438;2022-11-20T13:29:31;9.80;99.90
59067;DHT22;44854;50.838;4.438;2022-11-20T13:32:14;9.70;99.90
59067;DHT22;44854;50.838;4.438;2022-11-20T13:34:50;9.80;99.90
59067;DHT22;44854;50.838;4.438;2022-11-20T13:37:29;9.70;99.90
59067;DHT22;44854;50.838;4.438;2022-11-20T13:42:35;9.60;99.90
59067;DHT22;44854;50.838;4.438;2022-11-20T13:45:08;9.60;99.90
59067;DHT22;44854;50.838;4.438;2022-11-20T13:47:46;9.60;99.90
59067;DHT22;44854;50.838;4.438;2022-11-20T13:50:15;9.60;99.90
59067;DHT22;44854;50.838;4.438;2022-11-20T14:00:16;9.60;99.90
59067;DHT22;44854;50.838;4.438;2022-11-20T14:02:42;9.60;99.90
59067;DHT22;44854;50.838;4.438;2022-11-20T14:05:19;9.60;99.90
59067;DHT22;44854;50.838;4.438;2022-11-20T14:07:46;9.70;99.90
59067;DHT22;44854;50.838;4.438;2022-11-20T14:10:23;9.80;99.90
59067;DHT22;44854;50.838;4.438;2022-11-20T14:12:48;9.80;99.90
59067;DHT22;44854;50.838;4.438;2022-11-20T14:15:32;9.70;99.90
59067;DHT22;44854;50.838;4.438;2022-11-20T14:17:58;9.80;99.90
59067;DHT22;44854;50.838;4.438;2022-11-20T14:20:28;9.80;99.90
59067;DHT22;44854;50.838;4.438;2022-11-20T14:22:54;9.80;99.90
59067;DHT22;44854;50.838;4.438;2022-11-20T14:25:21;9.60;99.90
59067;DHT22;44854;50.838;4.438;2022-11-20T14:27:55;9.40;99.90
59067;DHT22;44854;50.838;4.438;2022-11-20T14:30:25;9.40;99.90
59067;DHT22;44854;50.838;4.438;2022-11-20T14:32:53;9.40;99.90
59067;DHT22;44854;50.838;4.438;2022-11-20T14:35:26;9.50;99.90
59067;DHT22;44854;50.838;4.438;2022-11-20T14:37:55;9.50;99.90
59067;DHT22;44854;50.838;4.438;2022-11-20T14:40:26;9.70;99.90
59067;DHT22;44854;50.838;4.438;2022-11-20T14:42:52;9.60;99.90
59067;DHT22;44854;50.838;4.438;2022-11-20T14:45:18;9.70;99.90
59067;DHT22;44854;50.838;4.438;2022-11-20T14:47:47;9.70;99.90
59067;DHT22;44854;50.838;4.438;2022-11-20T14:50:18;9.60;99.90
59067;DHT22;44854;50.838;4.438;2022-11-20T14:52:57;9.70;99.90
59067;DHT22;44854;50.838;4.438;2022-11-20T14:55:30;9.50;99.90
59067;DHT22;44854;50.838;4.438;2022-11-20T14:58:00;9.40;99.90
59067;DHT22;44854;50.838;4.438;2022-11-20T15:00:26;9.40;99.90
59067;DHT22;44854;50.838;4.438;2022-11-20T15:02:52;9.40;99.90
59067;DHT22;44854;50.838;4.438;2022-11-20T15:05:19;9.50;99.90
59067;DHT22;44854;50.838;4.438;2022-11-20T15:07:50;9.70;99.90
59067;DHT22;44854;50.838;4.438;2022-11-20T15:12:48;9.40;99.90
59067;DHT22;44854;50.838;4.438;2022-11-20T15:15:19;9.40;99.90
59067;DHT22;44854;50.838;4.438;2022-11-20T15:17:46;9.60;99.90
59067;DHT22;44854;50.838;4.438;2022-11-20T15:20:13;9.50;99.90
59067;DHT22;44854;50.838;4.438;2022-11-20T15:22:38;9.40;99.90
59067;DHT22;44854;50.838;4.438;2022-11-20T15:27:38;9.50;99.90
59067;DHT22;44854;50.838;4.438;2022-11-20T15:30:14;9.40;99.90
59067;DHT22;44854;50.838;4.438;2022-11-20T15:32:40;9.40;99.90
59067;DHT22;44854;50.838;4.438;2022-11-20T15:35:07;9.40;99.90
59067;DHT22;44854;50.838;4.438;2022-11-20T15:37:33;9.40;99.90
59067;DHT22;44854;50.838;4.438;2022-11-20T15:39:58;9.40;99.90
59067;DHT22;44854;50.838;4.438;2022-11-20T15:42:24;9.50;99.90
59067;DHT22;44854;50.838;4.438;2022-11-20T15:44:49;9.60;99.90
59067;DHT22;44854;50.838;4.438;2022-11-20T15:47:15;9.60;99.90
59067;DHT22;44854;50.838;4.438;2022-11-20T15:49:42;9.60;99.90
59067;DHT22;44854;50.838;4.438;2022-11-20T15:52:08;9.60;99.90
59067;DHT22;44854;50.838;4.438;2022-11-20T15:54:34;9.70;99.90
59067;DHT22;44854;50.838;4.438;2022-11-20T15:56:59;9.60;99.90
59067;DHT22;44854;50.838;4.438;2022-11-20T15:59:26;9.70;99.90
59067;DHT22;44854;50.838;4.438;2022-11-20T16:01:51;9.70;99.90
59067;DHT22;44854;50.838;4.438;2022-11-20T16:04:17;9.70;99.90
59067;DHT22;44854;50.838;4.438;2022-11-20T16:06:43;9.90;99.90
59067;DHT22;44854;50.838;4.438;2022-11-20T16:09:09;9.80;99.90
59067;DHT22;44854;50.838;4.438;2022-11-20T16:11:35;9.70;99.90
59067;DHT22;44854;50.838;4.438;2022-11-20T16:14:04;9.70;99.90
59067;DHT22;44854;50.838;4.438;2022-11-20T16:16:48;9.80;99.90
59067;DHT22;44854;50.838;4.438;2022-11-20T16:19:14;9.80;99.90
59067;DHT22;44854;50.838;4.438;2022-11-20T16:21:41;9.70;99.90
59067;DHT22;44854;50.838;4.438;2022-11-20T16:24:08;9.60;99.90
59067;DHT22;44854;50.838;4.438;2022-11-20T16:26:34;9.60;99.90
59067;DHT22;44854;50.838;4.438;2022-11-20T16:29:00;9.60;99.90
59067;DHT22;44854;50.838;4.438;2022-11-20T16:31:26;9.70;99.90
59067;DHT22;44854;50.838;4.438;2022-11-20T16:33:52;9.70;99.90
59067;DHT22;44854;50.838;4.438;2022-11-20T16:36:18;9.60;99.90
59067;DHT22;44854;50.838;4.438;2022-11-20T16:38:44;9.60;99.90
59067;DHT22;44854;50.838;4.438;2022-11-20T16:41:10;9.60;99.90
59067;DHT22;44854;50.838;4.438;2022-11-20T16:43:46;9.60;99.90
59067;DHT22;44854;50.838;4.438;2022-11-20T16:46:12;9.60;99.90
59067;DHT22;44854;50.838;4.438;2022-11-20T16:48:38;9.70;99.90
59067;DHT22;44854;50.838;4.438;2022-11-20T16:51:03;9.70;99.90
59067;DHT22;44854;50.838;4.438;2022-11-20T16:53:32;9.70;99.90
59067;DHT22;44854;50.838;4.438;2022-11-20T16:56:07;9.60;99.90
59067;DHT22;44854;50.838;4.438;2022-11-20T16:58:32;9.70;99.90
59067;DHT22;44854;50.838;4.438;2022-11-20T17:01:04;9.70;99.90
59067;DHT22;44854;50.838;4.438;2022-11-20T17:03:30;9.60;99.90
59067;DHT22;44854;50.838;4.438;2022-11-20T17:05:56;9.60;99.90
59067;DHT22;44854;50.838;4.438;2022-11-20T17:08:21;9.60;99.90
59067;DHT22;44854;50.838;4.438;2022-11-20T17:10:47;9.70;99.90
59067;DHT22;44854;50.838;4.438;2022-11-20T17:13:13;9.70;99.90
59067;DHT22;44854;50.838;4.438;2022-11-20T17:15:38;9.60;99.90
59067;DHT22;44854;50.838;4.438;2022-11-20T17:18:04;9.60;99.90
59067;DHT22;44854;50.838;4.438;2022-11-20T17:20:29;9.70;99.90
59067;DHT22;44854;50.838;4.438;2022-11-20T17:22:56;9.70;99.90
59067;DHT22;44854;50.838;4.438;2022-11-20T17:25:22;9.70;99.90
59067;DHT22;44854;50.838;4.438;2022-11-20T17:27:47;9.70;99.90
59067;DHT22;44854;50.838;4.438;2022-11-20T17:30:13;9.80;99.90
59067;DHT22;44854;50.838;4.438;2022-11-20T17:32:39;9.70;99.90
59067;DHT22;44854;50.838;4.438;2022-11-20T17:35:09;9.80;99.90
59067;DHT22;44854;50.838;4.438;2022-11-20T17:37:35;9.80;99.90
59067;DHT22;44854;50.838;4.438;2022-11-20T17:40:00;9.80;99.90
59067;DHT22;44854;50.838;4.438;2022-11-20T17:42:26;9.70;99.90
59067;DHT22;44854;50.838;4.438;2022-11-20T17:44:53;9.50;99.90
59067;DHT22;44854;50.838;4.438;2022-11-20T17:47:19;9.30;99.90
59067;DHT22;44854;50.838;4.438;2022-11-20T17:49:44;9.10;99.90
59067;DHT22;44854;50.838;4.438;2022-11-20T17:52:10;9.10;99.90
59067;DHT22;44854;50.838;4.438;2022-11-20T17:54:35;9.10;99.90
59067;DHT22;44854;50.838;4.438;2022-11-20T17:57:01;9.20;99.90
59067;DHT22;44854;50.838;4.438;2022-11-20T17:59:45;9.20;99.90
59067;DHT22;44854;50.838;4.438;2022-11-20T18:02:10;8.90;99.90
59067;DHT22;44854;50.838;4.438;2022-11-20T18:04:36;8.80;99.90
59067;DHT22;44854;50.838;4.438;2022-11-20T18:07:02;8.80;99.90
59067;DHT22;44854;50.838;4.438;2022-11-20T18:09:27;8.60;99.90
59067;DHT22;44854;50.838;4.438;2022-11-20T18:11:53;8.60;99.90
59067;DHT22;44854;50.838;4.438;2022-11-20T18:14:19;8.70;99.90
59067;DHT22;44854;50.838;4.438;2022-11-20T18:19:19;8.70;99.90
59067;DHT22;44854;50.838;4.438;2022-11-20T18:21:45;8.80;99.90
59067;DHT22;44854;50.838;4.438;2022-11-20T18:24:14;8.90;99.90
59067;DHT22;44854;50.838;4.438;2022-11-20T18:26:39;8.90;99.90
59067;DHT22;44854;50.838;4.438;2022-11-20T18:29:05;9.00;99.90
59067;DHT22;44854;50.838;4.438;2022-11-20T18:31:31;9.00;99.90
59067;DHT22;44854;50.838;4.438;2022-11-20T18:33:56;9.10;99.90
59067;DHT22;44854;50.838;4.438;2022-11-20T18:36:23;9.10;99.90
59067;DHT22;44854;50.838;4.438;2022-11-20T18:38:50;9.10;99.90
59067;DHT22;44854;50.838;4.438;2022-11-20T18:41:16;9.20;99.90
59067;DHT22;44854;50.838;4.438;2022-11-20T18:44:01;9.20;99.90
59067;DHT22;44854;50.838;4.438;2022-11-20T18:46:46;9.10;99.90
59067;DHT22;44854;50.838;4.438;2022-11-20T18:49:12;9.10;99.90
59067;DHT22;44854;50.838;4.438;2022-11-20T18:51:38;9.10;99.90
59067;DHT22;44854;50.838;4.438;2022-11-20T18:54:04;9.20;99.90
59067;DHT22;44854;50.838;4.438;2022-11-20T18:56:30;9.20;99.90
59067;DHT22;44854;50.838;4.438;2022-11-20T18:58:59;9.20;99.90
59067;DHT22;44854;50.838;4.438;2022-11-20T19:01:24;9.30;99.90
59067;DHT22;44854;50.838;4.438;2022-11-20T19:03:50;9.30;99.90
59067;DHT22;44854;50.838;4.438;2022-11-20T19:06:16;9.40;99.90
59067;DHT22;44854;50.838;4.438;2022-11-20T19:08:42;9.50;99.90
59067;DHT22;44854;50.838;4.438;2022-11-20T19:11:09;9.40;99.90
59067;DHT22;44854;50.838;4.438;2022-11-20T19:13:34;9.40;99.90
59067;DHT22;44854;50.838;4.438;2022-11-20T19:16:04;9.40;99.90
59067;DHT22;44854;50.838;4.438;2022-11-20T19:18:30;9.40;99.90
59067;DHT22;44854;50.838;4.438;2022-11-20T19:20:56;9.30;99.90
59067;DHT22;44854;50.838;4.438;2022-11-20T19:23:22;9.30;99.90
59067;DHT22;44854;50.838;4.438;2022-11-20T19:25:48;9.30;99.90
59067;DHT22;44854;50.838;4.438;2022-11-20T19:28:14;9.20;99.90
59067;DHT22;44854;50.838;4.438;2022-11-20T19:30:40;9.20;99.90
59067;DHT22;44854;50.838;4.438;2022-11-20T19:33:06;9.30;99.90
59067;DHT22;44854;50.838;4.438;2022-11-20T19:35:32;9.30;99.90
59067;DHT22;44854;50.838;4.438;2022-11-20T19:37:58;9.20;99.90
59067;DHT22;44854;50.838;4.438;2022-11-20T19:40:23;9.30;99.90
59067;DHT22;44854;50.838;4.438;2022-11-20T19:42:49;9.30;99.90
59067;DHT22;44854;50.838;4.438;2022-11-20T19:45:15;9.30;99.90
59067;DHT22;44854;50.838;4.438;2022-11-20T19:47:40;9.30;99.90
59067;DHT22;44854;50.838;4.438;2022-11-20T19:50:06;9.10;99.90
59067;DHT22;44854;50.838;4.438;2022-11-20T19:52:32;9.30;99.90
59067;DHT22;44854;50.838;4.438;2022-11-20T19:54:57;9.30;99.90
59067;DHT22;44854;50.838;4.438;2022-11-20T19:57:23;9.20;99.90
59067;DHT22;44854;50.838;4.438;2022-11-20T19:59:48;9.20;99.90
59067;DHT22;44854;50.838;4.438;2022-11-20T20:02:14;9.00;99.90
59067;DHT22;44854;50.838;4.438;2022-11-20T20:04:40;8.90;99.90
59067;DHT22;44854;50.838;4.438;2022-11-20T20:07:05;8.90;99.90
59067;DHT22;44854;50.838;4.438;2022-11-20T20:09:31;8.90;99.90
59067;DHT22;44854;50.838;4.438;2022-11-20T20:11:58;8.80;99.90
59067;DHT22;44854;50.838;4.438;2022-11-20T20:14:24;8.90;99.90
59067;DHT22;44854;50.838;4.438;2022-11-20T20:16:49;8.90;99.90
59067;DHT22;44854;50.838;4.438;2022-11-20T20:19:15;8.90;99.90
59067;DHT22;44854;50.838;4.438;2022-11-20T20:21:41;9.00;99.90
59067;DHT22;44854;50.838;4.438;2022-11-20T20:24:08;8.90;99.90
59067;DHT22;44854;50.838;4.438;2022-11-20T20:26:33;8.80;99.90
59067;DHT22;44854;50.838;4.438;2022-11-20T20:29:02;8.70;99.90
59067;DHT22;44854;50.838;4.438;2022-11-20T20:31:29;8.70;99.90
59067;DHT22;44854;50.838;4.438;2022-11-20T20:33:55;8.70;99.90
59067;DHT22;44854;50.838;4.438;2022-11-20T20:36:21;8.60;99.90
59067;DHT22;44854;50.838;4.438;2022-11-20T20:38:50;8.60;99.90
59067;DHT22;44854;50.838;4.438;2022-11-20T20:41:17;8.60;99.90
59067;DHT22;44854;50.838;4.438;2022-11-20T20:43:44;8.60;99.90
59067;DHT22;44854;50.838;4.438;2022-11-20T20:46:29;8.60;99.90
59067;DHT22;44854;50.838;4.438;2022-11-20T20:48:54;8.60;99.90
59067;DHT22;44854;50.838;4.438;2022-11-20T20:51:20;8.60;99.90
59067;DHT22;44854;50.838;4.438;2022-11-20T20:53:46;8.60;99.90
59067;DHT22;44854;50.838;4.438;2022-11-20T20:56:12;8.50;99.90
59067;DHT22;44854;50.838;4.438;2022-11-20T20:58:37;8.50;99.90
59067;DHT22;44854;50.838;4.438;2022-11-20T21:01:05;8.50;99.90
59067;DHT22;44854;50.838;4.438;2022-11-20T21:03:34;8.60;99.90
59067;DHT22;44854;50.838;4.438;2022-11-20T21:06:00;8.60;99.90
59067;DHT22;44854;50.838;4.438;2022-11-20T21:08:26;8.50;99.90
59067;DHT22;44854;50.838;4.438;2022-11-20T21:11:02;8.50;99.90
59067;DHT22;44854;50.838;4.438;2022-11-20T21:13:29;8.60;99.90
59067;DHT22;44854;50.838;4.438;2022-11-20T21:15:55;8.60;99.90
59067;DHT22;44854;50.838;4.438;2022-11-20T21:18:21;8.50;99.90
59067;DHT22;44854;50.838;4.438;2022-11-20T21:20:47;8.60;99.90
59067;DHT22;44854;50.838;4.438;2022-11-20T21:23:31;8.50;99.90
59067;DHT22;44854;50.838;4.438;2022-11-20T21:26:01;8.50;99.90
59067;DHT22;44854;50.838;4.438;2022-11-20T21:28:28;8.50;99.90
59067;DHT22;44854;50.838;4.438;2022-11-20T21:31:00;8.50;99.90
59067;DHT22;44854;50.838;4.438;2022-11-20T21:33:26;8.50;99.90
59067;DHT22;44854;50.838;4.438;2022-11-20T21:35:52;8.50;99.90
59067;DHT22;44854;50.838;4.438;2022-11-20T21:38:17;8.50;99.90
59067;DHT22;44854;50.838;4.438;2022-11-20T21:40:43;8.60;99.90
59067;DHT22;44854;50.838;4.438;2022-11-20T21:43:09;8.50;99.90
59067;DHT22;44854;50.838;4.438;2022-11-20T21:45:34;8.60;99.90
59067;DHT22;44854;50.838;4.438;2022-11-20T21:48:00;8.60;99.90
59067;DHT22;44854;50.838;4.438;2022-11-20T21:50:25;8.60;99.90
59067;DHT22;44854;50.838;4.438;2022-11-20T21:52:51;8.70;99.90
59067;DHT22;44854;50.838;4.438;2022-11-20T21:55:20;8.70;99.90
59067;DHT22;44854;50.838;4.438;2022-11-20T21:57:45;8.70;99.90
59067;DHT22;44854;50.838;4.438;2022-11-20T22:00:11;8.80;99.90
59067;DHT22;44854;50.838;4.438;2022-11-20T22:02:39;8.80;99.90
59067;DHT22;44854;50.838;4.438;2022-11-20T22:05:05;8.60;99.90
59067;DHT22;44854;50.838;4.438;2022-11-20T22:07:31;8.70;99.90
59067;DHT22;44854;50.838;4.438;2022-11-20T22:09:56;8.60;99.90
59067;DHT22;44854;50.838;4.438;2022-11-20T22:12:22;8.50;99.90
59067;DHT22;44854;50.838;4.438;2022-11-20T22:14:47;8.50;99.90
59067;DHT22;44854;50.838;4.438;2022-11-20T22:17:13;8.40;99.90
59067;DHT22;44854;50.838;4.438;2022-11-20T22:19:39;8.50;99.90
59067;DHT22;44854;50.838;4.438;2022-11-20T22:22:04;8.40;99.90
59067;DHT22;44854;50.838;4.438;2022-11-20T22:24:30;8.40;99.90
59067;DHT22;44854;50.838;4.438;2022-11-20T22:26:55;8.50;99.90
59067;DHT22;44854;50.838;4.438;2022-11-20T22:29:24;8.40;99.90
59067;DHT22;44854;50.838;4.438;2022-11-20T22:31:50;8.40;99.90
59067;DHT22;44854;50.838;4.438;2022-11-20T22:34:19;8.40;99.90
59067;DHT22;44854;50.838;4.438;2022-11-20T22:36:44;8.40;99.90
59067;DHT22;44854;50.838;4.438;2022-11-20T22:39:10;8.30;99.90
59067;DHT22;44854;50.838;4.438;2022-11-20T22:41:35;8.20;99.90
59067;DHT22;44854;50.838;4.438;2022-11-20T22:44:11;8.20;99.90
59067;DHT22;44854;50.838;4.438;2022-11-20T22:46:37;8.20;99.90
59067;DHT22;44854;50.838;4.438;2022-11-20T22:49:05;8.20;99.90
59067;DHT22;44854;50.838;4.438;2022-11-20T22:51:33;8.20;99.90
59067;DHT22;44854;50.838;4.438;2022-11-20T22:53:59;8.30;99.90
59067;DHT22;44854;50.838;4.438;2022-11-20T22:56:25;8.20;99.90
59067;DHT22;44854;50.838;4.438;2022-11-20T22:58:51;8.20;99.90
59067;DHT22;44854;50.838;4.438;2022-11-20T23:01:18;8.20;99.90
59067;DHT22;44854;50.838;4.438;2022-11-20T23:03:44;8.30;99.90
59067;DHT22;44854;50.838;4.438;2022-11-20T23:06:11;8.30;99.90
59067;DHT22;44854;50.838;4.438;2022-11-20T23:08:37;8.30;99.90
59067;DHT22;44854;50.838;4.438;2022-11-20T23:11:07;8.30;99.90
59067;DHT22;44854;50.838;4.438;2022-11-20T23:13:33;8.30;99.90
59067;DHT22;44854;50.838;4.438;2022-11-20T23:16:00;8.20;99.90
59067;DHT22;44854;50.838;4.438;2022-11-20T23:18:26;8.30;99.90
